Time;durP1;ratioP1;P1;durP2;ratioP2;P2;SDS_P1;SDS_P2;PMS_P1;PMS_P2;Temp;Humidity;BMP_temperature;BMP_pressure;BME280_temperature;BME280_humidity;BME280_pressure;Samples;Min_cycle;Max_cycle;Signal;HPM_P1;HPM_P2
2023/04/30 00:01:48;;;;;;;16.43;12.70;;;;;;;14.49;61.54;100030.75;5017474;28;20214;-67
2023/04/30 00:04:16;;;;;;;15.90;12.20;;;;;;;14.51;61.92;100033.31;5017440;28;20207;-66
2023/04/30 00:06:44;;;;;;;15.50;11.87;;;;;;;14.50;62.52;100032.44;5017191;28;20290;-66
2023/04/30 00:09:13;;;;;;;17.93;12.60;;;;;;;14.49;62.98;100033.34;5017397;28;20199;-66
2023/04/30 00:11:41;;;;;;;13.85;11.90;;;;;;;14.49;62.95;100035.06;5017307;28;20215;-66
2023/04/30 00:14:10;;;;;;;15.60;12.40;;;;;;;14.47;63.10;100042.88;5017296;28;20230;-67
2023/04/30 00:16:38;;;;;;;13.90;11.97;;;;;;;14.48;62.78;100038.56;5017207;28;20219;-67
2023/04/30 00:19:07;;;;;;;15.75;12.60;;;;;;;14.51;62.99;100043.69;5017322;28;20204;-67
2023/04/30 00:21:35;;;;;;;14.97;12.67;;;;;;;14.48;63.12;100039.41;5017024;28;20215;-65
2023/04/30 00:24:03;;;;;;;14.40;12.57;;;;;;;14.47;63.30;100042.00;5017489;28;20198;-68
2023/04/30 00:26:33;;;;;;;15.23;12.83;;;;;;;14.46;63.16;100040.31;5017207;28;20659;-67
2023/04/30 00:29:01;;;;;;;17.50;12.80;;;;;;;14.44;63.06;100045.56;5017021;28;20199;-66
2023/04/30 00:31:28;;;;;;;15.57;12.47;;;;;;;14.39;63.27;100039.63;5017100;28;20320;-66
2023/04/30 00:33:58;;;;;;;14.97;12.60;;;;;;;14.32;63.80;100045.03;5017260;28;20238;-66
2023/04/30 00:36:26;;;;;;;15.77;13.17;;;;;;;14.22;63.72;100047.03;5017369;28;20219;-68
2023/04/30 00:38:53;;;;;;;18.20;12.80;;;;;;;14.23;64.68;100056.50;5017057;28;20249;-66
2023/04/30 00:41:23;;;;;;;14.63;12.70;;;;;;;14.25;64.18;100053.00;5016917;28;20203;-71
2023/04/30 00:43:52;;;;;;;15.93;12.93;;;;;;;14.27;64.07;100050.34;5017464;28;20211;-66
2023/04/30 00:46:20;;;;;;;14.97;12.37;;;;;;;14.28;64.48;100059.81;5017256;28;20643;-67
2023/04/30 00:48:49;;;;;;;17.27;13.87;;;;;;;14.30;63.93;100055.44;5017064;28;20286;-69
2023/04/30 00:51:16;;;;;;;19.30;13.83;;;;;;;14.32;64.12;100058.84;5016800;28;20257;-66
2023/04/30 00:53:45;;;;;;;15.17;13.57;;;;;;;14.31;63.97;100056.28;5017250;28;20662;-66
2023/04/30 00:56:15;;;;;;;17.90;13.77;;;;;;;14.24;63.79;100053.84;5016833;28;20341;-67
2023/04/30 00:58:43;;;;;;;16.73;13.83;;;;;;;14.21;63.82;100056.56;5012961;28;20226;-67
2023/04/30 01:01:14;;;;;;;16.37;14.67;;;;;;;14.09;64.50;100058.59;5013766;28;20571;-66
2023/04/30 01:03:43;;;;;;;15.53;13.90;;;;;;;13.96;65.00;100052.91;5014214;28;20231;-66
2023/04/30 01:06:11;;;;;;;17.53;14.13;;;;;;;13.88;65.63;100047.91;5013757;28;20281;-67
2023/04/30 01:08:39;;;;;;;18.67;14.77;;;;;;;13.94;65.84;100052.91;5013969;28;20578;-67
2023/04/30 01:11:22;;;;;;;18.43;14.40;;;;;;;13.93;65.92;100056.41;5013856;28;20215;-67
2023/04/30 01:13:59;;;;;;;17.93;14.27;;;;;;;13.91;65.75;100059.91;5014198;28;20657;-67
2023/04/30 01:16:35;;;;;;;18.63;14.57;;;;;;;13.92;66.21;100062.47;5013305;28;20231;-66
2023/04/30 01:19:17;;;;;;;18.20;15.33;;;;;;;13.93;66.27;100061.59;5013713;28;20269;-66
2023/04/30 01:21:47;;;;;;;17.93;14.23;;;;;;;13.89;66.16;100059.97;5013321;28;20211;-67
2023/04/30 01:24:43;;;;;;;16.20;13.87;;;;;;;13.90;66.67;100058.22;5013589;28;20610;-66
2023/04/30 01:27:23;;;;;;;17.13;13.70;;;;;;;13.92;66.53;100065.06;5013234;28;20794;-66
2023/04/30 01:29:54;;;;;;;18.73;14.20;;;;;;;13.91;67.16;100073.72;5013245;28;20257;-65
2023/04/30 01:32:23;;;;;;;15.00;13.50;;;;;;;13.90;67.51;100066.00;5012823;28;20199;-67
2023/04/30 01:34:51;;;;;;;14.57;12.43;;;;;;;13.83;67.52;100065.28;5013248;28;20231;-67
2023/04/30 01:37:25;;;;;;;17.60;13.53;;;;;;;13.81;67.68;100071.38;5013305;28;20640;-65
2023/04/30 01:40:08;;;;;;;15.20;13.20;;;;;;;13.74;68.54;100068.97;5012998;28;20257;-67
2023/04/30 01:42:45;;;;;;;15.37;13.17;;;;;;;13.68;68.87;100073.44;5012819;28;20211;-69
2023/04/30 01:45:30;;;;;;;15.87;13.73;;;;;;;13.66;69.01;100073.47;5012936;28;20215;-65
2023/04/30 01:48:06;;;;;;;14.17;12.67;;;;;;;13.63;68.87;100072.69;5013041;28;20611;-66
2023/04/30 01:50:42;;;;;;;17.00;13.27;;;;;;;13.60;69.47;100081.38;5013052;28;20718;-66
2023/04/30 01:53:16;;;;;;;15.53;13.67;;;;;;;13.58;69.68;100079.69;5013014;28;20195;-66
2023/04/30 01:55:51;;;;;;;15.43;13.63;;;;;;;13.58;69.46;100082.28;5012897;28;20637;-65
2023/04/30 01:58:22;;;;;;;16.83;12.80;;;;;;;13.57;69.55;100080.59;5012544;28;20210;-64
2023/04/30 02:00:52;;;;;;;16.10;12.70;;;;;;;13.54;69.43;100078.91;5012535;28;20204;-69
2023/04/30 02:03:20;;;;;;;12.83;11.47;;;;;;;13.48;69.30;100079.94;5012292;28;20265;-66
2023/04/30 02:05:48;;;;;;;14.63;12.17;;;;;;;13.43;69.97;100081.75;5012679;28;20212;-66
2023/04/30 02:08:16;;;;;;;16.13;12.23;;;;;;;13.39;70.12;100072.34;5012074;28;20199;-67
2023/04/30 02:10:44;;;;;;;13.57;11.87;;;;;;;13.42;70.09;100085.22;5012521;28;20213;-66
2023/04/30 02:13:12;;;;;;;12.10;10.83;;;;;;;13.39;70.10;100084.44;5012392;28;20219;-65
2023/04/30 02:15:40;;;;;;;13.80;12.30;;;;;;;13.36;70.40;100087.94;5012482;28;20724;-65
2023/04/30 02:18:09;;;;;;;16.37;12.20;;;;;;;13.31;70.68;100086.38;5012431;28;20207;-65
2023/04/30 02:20:37;;;;;;;14.07;12.17;;;;;;;13.28;70.67;100088.13;5012234;28;20218;-67
2023/04/30 02:23:05;;;;;;;17.67;13.03;;;;;;;13.25;71.12;100093.34;5012144;28;20207;-67
2023/04/30 02:25:36;;;;;;;16.00;12.10;;;;;;;13.21;71.48;100096.03;5012100;28;20203;-65
2023/04/30 02:28:05;;;;;;;15.27;12.57;;;;;;;13.24;71.25;100096.00;5012169;28;20330;-67
2023/04/30 02:30:33;;;;;;;14.17;11.70;;;;;;;13.20;71.01;100097.75;5011916;28;20269;-67
2023/04/30 02:33:01;;;;;;;13.43;12.03;;;;;;;13.17;71.27;100099.56;5012272;28;20565;-65
2023/04/30 02:35:30;;;;;;;15.60;11.73;;;;;;;13.15;71.34;100106.53;5012100;28;20218;-66
2023/04/30 02:37:58;;;;;;;13.87;12.10;;;;;;;13.13;72.22;100105.69;5011771;28;20226;-65
2023/04/30 02:40:26;;;;;;;12.83;11.20;;;;;;;13.12;71.59;100117.78;5012141;28;20621;-65
2023/04/30 02:42:55;;;;;;;13.00;11.00;;;;;;;13.08;71.61;100118.72;5012220;28;20195;-67
2023/04/30 02:45:23;;;;;;;13.57;10.93;;;;;;;13.03;71.85;100124.00;5012193;28;20677;-66
2023/04/30 02:47:51;;;;;;;13.20;10.40;;;;;;;12.99;71.89;100122.34;5011800;28;20203;-70
2023/04/30 02:50:19;;;;;;;14.17;10.87;;;;;;;12.96;72.28;100122.41;5011899;28;20265;-69
2023/04/30 02:52:48;;;;;;;12.70;10.40;;;;;;;12.93;72.13;100134.56;5012003;28;20238;-66
2023/04/30 02:55:16;;;;;;;13.33;10.70;;;;;;;12.90;72.36;100132.88;5011652;28;20242;-66
2023/04/30 02:57:44;;;;;;;12.07;10.83;;;;;;;12.89;72.11;100140.69;5011748;28;20251;-66
2023/04/30 03:00:13;;;;;;;12.73;10.73;;;;;;;12.83;72.06;100136.47;5012087;28;20203;-66
2023/04/30 03:02:41;;;;;;;13.73;10.70;;;;;;;12.76;71.50;100142.63;5011876;28;20720;-65
2023/04/30 03:05:09;;;;;;;15.37;10.97;;;;;;;12.68;71.26;100147.09;5011862;28;20253;-66
2023/04/30 03:07:37;;;;;;;12.80;10.60;;;;;;;12.64;71.40;100150.63;5011967;28;20195;-65
2023/04/30 03:10:08;;;;;;;14.07;11.33;;;;;;;12.61;71.25;100150.69;5011229;28;20263;-65
2023/04/30 03:12:36;;;;;;;14.27;10.17;;;;;;;12.57;71.00;100153.31;5011465;28;20322;-65
2023/04/30 03:15:05;;;;;;;12.00;10.30;;;;;;;12.49;70.44;100155.19;5011300;28;20318;-67
2023/04/30 03:17:33;;;;;;;11.17;9.97;;;;;;;12.46;69.72;100164.72;5011014;28;20211;-66
2023/04/30 03:20:01;;;;;;;12.03;9.87;;;;;;;12.37;69.46;100168.31;5010529;28;20211;-66
2023/04/30 03:22:29;;;;;;;11.97;10.00;;;;;;;12.33;69.66;100166.66;5011495;28;20632;-68
2023/04/30 03:24:57;;;;;;;9.87;8.87;;;;;;;12.30;69.78;100162.41;5011514;28;20249;-67
2023/04/30 03:27:27;;;;;;;10.23;9.23;;;;;;;12.30;69.73;100166.72;5011318;28;20239;-69
2023/04/30 03:29:54;;;;;;;10.63;9.53;;;;;;;12.29;69.74;100175.31;5011305;28;20226;-66
2023/04/30 03:32:23;;;;;;;10.17;9.10;;;;;;;12.26;69.93;100165.03;5011267;28;20224;-66
2023/04/30 03:34:51;;;;;;;11.53;9.57;;;;;;;12.25;70.13;100171.09;5011557;28;20716;-66
2023/04/30 03:37:19;;;;;;;11.93;9.50;;;;;;;12.28;69.99;100174.47;5011365;28;20677;-66
2023/04/30 03:39:46;;;;;;;11.43;9.77;;;;;;;12.30;70.12;100184.81;4997455;28;20265;-67
2023/04/30 03:42:14;;;;;;;13.57;9.97;;;;;;;12.28;70.01;100192.56;5011386;28;20257;-67
2023/04/30 03:44:44;;;;;;;10.70;9.60;;;;;;;12.25;70.39;100199.50;5011202;28;20713;-66
2023/04/30 03:47:12;;;;;;;11.60;9.37;;;;;;;12.13;69.20;100213.47;5011359;28;20568;-64
2023/04/30 03:49:39;;;;;;;11.33;9.17;;;;;;;12.04;68.83;100211.91;5010668;28;20203;-67
2023/04/30 03:52:07;;;;;;;10.70;6.57;;;;;;;11.91;63.65;100212.94;5011256;28;20203;-67
2023/04/30 03:54:35;;;;;;;8.60;6.47;;;;;;;11.74;61.54;100217.44;5010768;28;20265;-65
2023/04/30 03:57:04;;;;;;;7.57;6.00;;;;;;;11.60;61.12;100226.25;5010645;28;20274;-65
2023/04/30 03:59:32;;;;;;;7.93;6.17;;;;;;;11.48;61.54;100226.38;5011023;28;20577;-67
2023/04/30 04:02:01;;;;;;;7.70;6.20;;;;;;;11.40;62.02;100228.19;5011022;28;20597;-65
2023/04/30 04:04:30;;;;;;;9.37;6.20;;;;;;;11.38;62.32;100237.69;5011267;28;20298;-69
2023/04/30 04:06:58;;;;;;;6.30;5.60;;;;;;;11.41;62.44;100236.78;4997494;28;20952;-66
2023/04/30 04:09:26;;;;;;;9.23;5.80;;;;;;;11.45;61.99;100249.66;5010810;28;20215;-66
2023/04/30 04:11:54;;;;;;;7.13;5.87;;;;;;;11.45;61.38;100244.50;5010894;28;20665;-70
2023/04/30 04:14:22;;;;;;;9.10;5.33;;;;;;;11.42;59.67;100256.59;5010979;28;20241;-66
2023/04/30 04:16:50;;;;;;;7.73;5.00;;;;;;;11.37;59.12;100256.63;5010923;28;20230;-68
2023/04/30 04:19:19;;;;;;;7.40;4.60;;;;;;;11.32;58.67;100268.72;5011000;28;20199;-66
2023/04/30 04:21:47;;;;;;;6.57;4.93;;;;;;;11.33;59.33;100273.84;5010575;28;20259;-66
2023/04/30 04:24:15;;;;;;;5.67;4.73;;;;;;;11.36;59.53;100272.97;5011096;28;20666;-65
2023/04/30 04:26:43;;;;;;;10.40;5.07;;;;;;;11.31;58.69;100262.72;5010515;28;20575;-65
2023/04/30 04:29:14;;;;;;;7.63;4.90;;;;;;;11.41;58.66;100275.50;5010626;28;20191;-65
2023/04/30 04:31:42;;;;;;;7.33;5.00;;;;;;;11.45;58.53;100285.78;5011343;28;20203;-67
2023/04/30 04:34:10;;;;;;;5.33;4.60;;;;;;;11.40;58.06;100284.09;5014069;28;20310;-65
2023/04/30 04:36:40;;;;;;;7.37;4.53;;;;;;;11.35;58.52;100291.91;5014099;28;20218;-65
2023/04/30 04:39:08;;;;;;;7.30;4.83;;;;;;;11.35;58.71;100287.59;5014235;28;20270;-66
2023/04/30 04:41:36;;;;;;;6.73;4.17;;;;;;;11.37;58.86;100290.16;5014448;28;20200;-68
2023/04/30 04:44:05;;;;;;;8.07;4.43;;;;;;;11.36;58.07;100299.63;5014373;28;20247;-67
2023/04/30 04:46:36;;;;;;;6.20;5.07;;;;;;;11.36;58.08;100306.50;5014065;28;20206;-66
2023/04/30 04:49:04;;;;;;;7.93;5.63;;;;;;;11.33;58.47;100315.13;5014099;28;20290;-67
2023/04/30 04:51:32;;;;;;;8.43;5.33;;;;;;;11.31;58.18;100316.03;5013896;28;20218;-66
2023/04/30 04:54:02;;;;;;;7.27;5.47;;;;;;;11.25;58.06;100316.09;5014049;28;20298;-67
2023/04/30 04:56:30;;;;;;;8.77;5.20;;;;;;;11.23;58.57;100322.97;5013978;28;20579;-66
2023/04/30 04:58:58;;;;;;;5.93;4.77;;;;;;;11.27;58.79;100324.69;5013804;28;20227;-66
2023/04/30 05:01:26;;;;;;;9.27;5.07;;;;;;;11.31;58.82;100327.19;5013551;28;20211;-67
2023/04/30 05:03:54;;;;;;;7.57;5.13;;;;;;;11.34;59.12;100328.88;5014083;28;20523;-66
2023/04/30 05:06:22;;;;;;;5.67;4.83;;;;;;;11.37;59.11;100332.28;5013906;28;20614;-66
2023/04/30 05:08:50;;;;;;;7.17;5.60;;;;;;;11.36;59.39;100329.72;5013778;28;20207;-66
2023/04/30 05:11:21;;;;;;;10.23;6.30;;;;;;;11.35;59.70;100343.50;5013985;28;20608;-66
2023/04/30 05:13:48;;;;;;;7.83;5.77;;;;;;;11.30;59.48;100347.84;5000321;28;20209;-65
2023/04/30 05:16:16;;;;;;;8.80;6.70;;;;;;;11.29;59.96;100348.72;5013586;28;20211;-67
2023/04/30 05:18:44;;;;;;;10.43;6.53;;;;;;;11.26;60.01;100353.91;5013341;28;20219;-66
2023/04/30 05:21:12;;;;;;;12.20;6.53;;;;;;;11.25;60.11;100363.38;5013725;28;20578;-65
2023/04/30 05:23:40;;;;;;;9.30;6.80;;;;;;;11.26;60.12;100354.75;5013408;28;20222;-68
2023/04/30 05:26:08;;;;;;;8.93;6.47;;;;;;;11.30;60.82;100363.31;5013603;28;20207;-68
2023/04/30 05:28:37;;;;;;;8.90;7.13;;;;;;;11.35;60.14;100364.16;5013486;28;20683;-67
2023/04/30 05:31:05;;;;;;;8.87;7.00;;;;;;;11.40;60.22;100375.25;5013337;28;20254;-66
2023/04/30 05:33:33;;;;;;;9.77;7.60;;;;;;;11.45;60.67;100378.66;5013452;28;20662;-66
2023/04/30 05:36:01;;;;;;;11.97;8.40;;;;;;;11.49;60.42;100375.19;5012942;28;20262;-67
2023/04/30 05:38:29;;;;;;;11.13;7.97;;;;;;;11.51;60.42;100380.31;5013100;28;20261;-67
2023/04/30 05:40:57;;;;;;;11.10;8.63;;;;;;;11.54;60.19;100388.03;5013138;28;20231;-66
2023/04/30 05:43:25;;;;;;;8.80;7.87;;;;;;;11.52;60.45;100380.28;5012717;28;20709;-67
2023/04/30 05:45:56;;;;;;;12.83;8.27;;;;;;;11.50;60.62;100384.63;5012985;28;20218;-65
2023/04/30 05:48:25;;;;;;;11.50;8.13;;;;;;;11.51;61.24;100386.34;5012896;28;20199;-67
2023/04/30 05:50:53;;;;;;;10.23;8.67;;;;;;;11.57;61.02;100396.59;5012780;28;20326;-69
2023/04/30 05:53:21;;;;;;;13.10;8.37;;;;;;;11.57;61.02;100382.84;5013488;28;20207;-67
2023/04/30 05:55:49;;;;;;;9.23;8.10;;;;;;;11.58;60.49;100402.63;5012822;28;20566;-65
2023/04/30 05:58:17;;;;;;;12.90;9.13;;;;;;;11.59;61.22;100405.16;5012612;28;20223;-66
2023/04/30 06:00:48;;;;;;;9.43;8.43;;;;;;;11.70;61.40;100399.06;5012980;28;20659;-66
2023/04/30 06:03:18;;;;;;;12.93;8.90;;;;;;;11.81;61.11;100405.81;5012463;28;20261;-66
2023/04/30 06:05:46;;;;;;;10.87;9.20;;;;;;;11.92;60.76;100408.31;5012705;28;20736;-66
2023/04/30 06:08:15;;;;;;;12.20;8.50;;;;;;;12.04;60.51;100415.03;5012683;28;20568;-67
2023/04/30 06:10:43;;;;;;;13.67;9.43;;;;;;;12.16;59.51;100420.09;5012615;28;20638;-67
2023/04/30 06:13:11;;;;;;;10.53;9.00;;;;;;;12.17;59.06;100413.19;5012583;28;20218;-67
2023/04/30 06:15:39;;;;;;;11.97;9.03;;;;;;;12.14;59.52;100416.66;5012387;28;20199;-67
2023/04/30 06:18:07;;;;;;;12.27;9.17;;;;;;;12.22;59.01;100411.41;5012832;28;20715;-66
2023/04/30 06:20:36;;;;;;;10.30;8.53;;;;;;;12.48;58.70;100418.81;5012285;28;20207;-66
2023/04/30 06:23:04;;;;;;;13.50;8.63;;;;;;;13.56;57.02;100423.22;5012259;28;20559;-65
2023/04/30 06:25:32;;;;;;;10.10;8.47;;;;;;;15.17;52.83;100411.19;5012199;28;20585;-66
2023/04/30 06:28:00;;;;;;;10.90;7.30;;;;;;;16.57;47.47;100407.38;5012318;28;20240;-70
2023/04/30 06:30:30;;;;;;;8.90;7.68;;;;;;;18.00;44.64;100411.34;5012065;28;20203;-67
2023/04/30 06:32:58;;;;;;;8.07;7.18;;;;;;;19.35;39.89;100400.88;5004015;28;20208;-65
2023/04/30 06:35:26;;;;;;;7.88;7.13;;;;;;;18.89;39.18;100397.53;5012212;28;20577;-66
2023/04/30 06:37:55;;;;;;;9.05;6.95;;;;;;;17.72;40.23;100393.22;5012015;28;20204;-66
2023/04/30 06:40:23;;;;;;;8.20;7.05;;;;;;;16.51;42.62;100421.44;5011995;28;20223;-67
2023/04/30 06:42:53;;;;;;;10.75;5.63;;;;;;;15.51;44.85;100419.88;5012194;28;20604;-68
2023/04/30 06:45:21;;;;;;;8.23;6.07;;;;;;;15.47;45.07;100411.31;5012146;28;20725;-69
2023/04/30 06:47:50;;;;;;;8.13;5.57;;;;;;;16.41;42.63;100414.78;5011587;28;20216;-69
2023/04/30 06:50:20;;;;;;;7.30;6.25;;;;;;;18.24;41.36;100409.63;5012184;28;20211;-73
2023/04/30 06:52:48;;;;;;;7.45;6.57;;;;;;;20.05;37.60;100402.22;5011626;28;20239;-72
2023/04/30 06:55:17;;;;;;;6.55;3.55;;;;;;;21.27;32.04;100400.81;5010930;28;20275;-73
2023/04/30 06:57:45;;;;;;;4.22;3.17;;;;;;;21.45;28.58;100408.63;5011861;28;20302;-72
2023/04/30 07:00:14;;;;;;;6.05;3.58;;;;;;;22.12;29.24;100401.63;5011293;28;20238;-72
2023/04/30 07:02:42;;;;;;;6.00;4.43;;;;;;;23.19;28.06;100404.50;5011586;28;20207;-72
2023/04/30 07:05:11;;;;;;;5.45;4.57;;;;;;;23.89;26.76;100410.84;5011628;28;20655;-72
2023/04/30 07:07:39;;;;;;;4.45;3.63;;;;;;;24.24;25.95;100413.09;5011748;28;20608;-72
2023/04/30 07:10:08;;;;;;;3.85;3.28;;;;;;;24.66;24.14;100411.31;5011696;28;20199;-71
2023/04/30 07:12:38;;;;;;;7.22;3.28;;;;;;;24.45;24.52;100409.13;5011635;28;20211;-71
2023/04/30 07:15:07;;;;;;;4.65;2.85;;;;;;;24.49;24.41;100404.53;5011376;28;20211;-71
2023/04/30 07:17:34;;;;;;;5.53;3.17;;;;;;;24.64;24.11;100410.59;5011364;28;20195;-71
2023/04/30 07:20:04;;;;;;;8.90;3.60;;;;;;;25.13;23.90;100420.59;5011380;28;20314;-71
2023/04/30 07:22:32;;;;;;;5.07;3.55;;;;;;;25.66;23.12;100430.16;5011352;28;20281;-72
2023/04/30 07:25:00;;;;;;;4.45;3.97;;;;;;;25.92;23.05;100419.63;5011049;28;20235;-71
2023/04/30 07:27:28;;;;;;;5.53;3.90;;;;;;;25.86;23.59;100417.44;5011059;28;20235;-71
2023/04/30 07:29:57;;;;;;;6.97;2.97;;;;;;;25.00;23.34;100424.03;5011067;28;20241;-71
2023/04/30 07:32:26;;;;;;;4.53;2.97;;;;;;;23.23;24.35;100438.38;5010658;28;20215;-71
2023/04/30 07:34:54;;;;;;;7.07;2.53;;;;;;;22.95;25.86;100440.94;5011039;28;20294;-72
2023/04/30 07:37:22;;;;;;;5.25;2.47;;;;;;;23.43;24.62;100429.34;5011386;28;20207;-71
2023/04/30 07:39:50;;;;;;;3.75;2.42;;;;;;;24.01;24.10;100436.41;5010934;28;20242;-72
2023/04/30 07:42:18;;;;;;;4.45;2.72;;;;;;;24.61;23.41;100442.41;5011211;28;20538;-72
2023/04/30 07:44:47;;;;;;;5.75;2.63;;;;;;;25.13;22.52;100445.16;5011156;28;20572;-71
2023/04/30 07:47:17;;;;;;;4.05;2.72;;;;;;;25.95;22.14;100436.09;5011142;28;20203;-72
2023/04/30 07:49:45;;;;;;;4.65;2.55;;;;;;;26.73;21.63;100437.66;5011114;28;20207;-72
2023/04/30 07:52:14;;;;;;;3.97;2.92;;;;;;;27.32;20.65;100439.50;5011195;28;20265;-71
2023/04/30 07:54:41;;;;;;;2.65;2.42;;;;;;;26.96;20.06;100439.47;5010812;28;20203;-70
2023/04/30 07:57:09;;;;;;;4.90;2.83;;;;;;;26.32;20.64;100445.88;5011173;28;20340;-70
2023/04/30 07:59:37;;;;;;;4.65;3.20;;;;;;;26.12;21.24;100447.31;5010882;28;20674;-70
2023/04/30 08:02:05;;;;;;;5.10;3.03;;;;;;;26.18;21.86;100441.56;5010806;28;20200;-70
2023/04/30 08:04:35;;;;;;;6.13;2.80;;;;;;;26.09;21.20;100450.16;5010941;28;20211;-71
2023/04/30 08:07:03;;;;;;;3.05;2.20;;;;;;;24.45;21.95;100459.19;5012405;28;20211;-70
2023/04/30 08:09:31;;;;;;;3.22;1.90;;;;;;;23.37;23.32;100458.63;5015062;28;20207;-71
2023/04/30 08:12:00;;;;;;;5.25;2.60;;;;;;;23.13;23.86;100453.88;5014783;28;20207;-73
2023/04/30 08:14:28;;;;;;;3.80;2.78;;;;;;;23.24;23.95;100465.56;5014724;28;20207;-71
2023/04/30 08:16:58;;;;;;;4.47;2.63;;;;;;;23.31;23.73;100457.22;5014591;28;20214;-70
2023/04/30 08:19:26;;;;;;;3.58;2.80;;;;;;;23.38;22.82;100465.56;5014756;28;20293;-72
2023/04/30 08:21:55;;;;;;;4.90;3.00;;;;;;;22.94;23.12;100466.38;5014849;28;20262;-71
2023/04/30 08:24:23;;;;;;;5.63;2.88;;;;;;;22.49;23.93;100467.91;5014893;28;20740;-71
2023/04/30 08:26:51;;;;;;;2.45;2.25;;;;;;;21.91;24.43;100481.50;5014627;28;20246;-72
2023/04/30 08:29:21;;;;;;;3.83;2.50;;;;;;;21.35;25.50;100472.06;5014173;28;20199;-70
2023/04/30 08:31:49;;;;;;;4.30;2.55;;;;;;;21.12;25.72;100466.16;5014149;28;20214;-72
2023/04/30 08:34:17;;;;;;;4.38;2.13;;;;;;;20.79;25.42;100483.50;5014215;28;20245;-71
2023/04/30 08:36:45;;;;;;;4.35;2.53;;;;;;;20.30;26.45;100490.94;5014504;28;20651;-72
2023/04/30 08:39:15;;;;;;;4.00;2.42;;;;;;;19.70;27.37;100480.44;5014420;28;20580;-71
2023/04/30 08:41:46;;;;;;;2.90;2.22;;;;;;;19.05;28.60;100493.50;5014606;28;20255;-71
2023/04/30 08:44:14;;;;;;;6.05;3.00;;;;;;;18.48;29.17;100486.09;5014373;28;20548;-72
2023/04/30 08:46:43;;;;;;;3.88;2.20;;;;;;;17.97;30.26;100494.88;5014297;28;20208;-73
2023/04/30 08:49:11;;;;;;;3.53;2.35;;;;;;;17.66;30.23;100506.34;5014675;28;20226;-70
2023/04/30 08:51:39;;;;;;;4.60;2.83;;;;;;;17.38;29.85;100504.66;5014200;28;20671;-70
2023/04/30 08:54:12;;;;;;;3.90;2.72;;;;;;;17.02;30.96;100498.84;5014421;28;20721;-70
2023/04/30 08:56:41;;;;;;;3.17;2.50;;;;;;;16.92;31.35;100507.00;5013990;28;20246;-71
2023/04/30 08:59:09;;;;;;;5.13;2.97;;;;;;;16.96;31.29;100508.59;5013896;28;20204;-71
2023/04/30 09:01:37;;;;;;;5.00;2.38;;;;;;;16.92;30.56;100512.19;5013643;28;20219;-74
2023/04/30 09:04:06;;;;;;;3.03;2.15;;;;;;;16.90;29.08;100515.69;5013729;28;20262;-73
2023/04/30 09:06:34;;;;;;;2.85;1.85;;;;;;;17.04;28.80;100509.19;5013824;28;20696;-73
2023/04/30 09:09:10;;;;;;;2.95;2.38;;;;;;;17.29;27.92;100517.09;5013896;28;20681;-72
2023/04/30 09:11:39;;;;;;;3.10;2.33;;;;;;;17.52;27.63;100516.38;5013647;28;20199;-72
2023/04/30 09:14:09;;;;;;;2.40;2.17;;;;;;;17.93;26.93;100521.97;5013808;28;20215;-72
2023/04/30 09:16:48;;;;;;;3.78;2.03;;;;;;;18.69;26.19;100529.69;5013889;28;20211;-72
2023/04/30 09:19:26;;;;;;;3.53;1.90;;;;;;;19.39;23.68;100528.72;5012957;28;20603;-73
2023/04/30 09:21:54;;;;;;;4.28;1.90;;;;;;;19.82;23.32;100520.94;5013385;28;20269;-72
2023/04/30 09:24:23;;;;;;;4.30;2.17;;;;;;;20.21;21.95;100528.81;5013765;28;20317;-73
2023/04/30 09:26:51;;;;;;;4.43;2.55;;;;;;;20.62;22.05;100529.66;5013052;28;20324;-71
2023/04/30 09:29:21;;;;;;;3.72;1.90;;;;;;;21.29;21.82;100530.88;5013644;28;20270;-72
2023/04/30 09:31:49;;;;;;;3.28;1.98;;;;;;;21.97;20.22;100523.13;5013346;28;20230;-71
2023/04/30 09:34:17;;;;;;;3.25;1.92;;;;;;;21.95;19.58;100525.00;5013345;28;20627;-73
2023/04/30 09:36:53;;;;;;;2.60;1.52;;;;;;;22.58;19.27;100533.09;5013176;28;20207;-71
2023/04/30 09:39:22;;;;;;;3.28;1.90;;;;;;;23.61;19.17;100524.75;5013279;28;20580;-71
2023/04/30 09:41:51;;;;;;;1.85;1.55;;;;;;;24.04;17.79;100516.97;5013038;28;20222;-72
2023/04/30 09:44:31;;;;;;;4.63;1.90;;;;;;;24.41;17.25;100520.88;5013398;28;20214;-71
2023/04/30 09:46:59;;;;;;;3.67;1.73;;;;;;;24.47;17.25;100522.31;5012932;28;20199;-72
2023/04/30 09:49:27;;;;;;;3.30;2.10;;;;;;;24.26;17.33;100525.28;5012906;28;20697;-71
2023/04/30 09:51:56;;;;;;;3.30;2.00;;;;;;;24.60;17.61;100523.25;5013104;28;20576;-71
2023/04/30 09:54:26;;;;;;;3.20;1.75;;;;;;;25.02;16.63;100526.75;5013025;28;20579;-71
2023/04/30 09:56:56;;;;;;;3.30;1.70;;;;;;;25.56;16.16;100523.28;5012901;28;20215;-70
2023/04/30 09:59:30;;;;;;;1.85;1.70;;;;;;;26.15;16.12;100515.78;5012933;28;20671;-70
2023/04/30 10:02:00;;;;;;;2.05;1.85;;;;;;;26.54;16.12;100512.16;5012702;28;20254;-71
2023/04/30 10:04:32;;;;;;;2.80;2.03;;;;;;;26.71;16.21;100513.59;5012522;28;20265;-69
2023/04/30 10:07:03;;;;;;;4.03;2.17;;;;;;;26.93;16.18;100513.75;5012660;28;20230;-70
2023/04/30 10:09:38;;;;;;;2.67;1.63;;;;;;;27.33;15.59;100505.56;5012536;28;20207;-70
2023/04/30 10:12:12;;;;;;;2.60;1.90;;;;;;;27.32;15.29;100509.19;5012832;28;20202;-70
2023/04/30 10:14:48;;;;;;;3.65;1.55;;;;;;;27.29;15.35;100504.13;5012867;28;20573;-71
2023/04/30 10:17:17;;;;;;;5.63;1.70;;;;;;;27.30;15.51;100511.09;5012310;28;20203;-71
2023/04/30 10:19:48;;;;;;;3.40;1.50;;;;;;;27.55;15.60;100504.81;5012520;28;20216;-71
2023/04/30 10:22:17;;;;;;;5.38;1.98;;;;;;;27.28;14.77;100510.34;5012543;28;20754;-71
2023/04/30 10:24:46;;;;;;;4.20;1.60;;;;;;;26.80;15.51;100517.38;5012406;28;20792;-71
2023/04/30 10:27:14;;;;;;;2.08;1.42;;;;;;;26.53;15.88;100509.63;5011989;28;20639;-70
2023/04/30 10:29:44;;;;;;;3.40;1.48;;;;;;;26.60;16.23;100505.59;5012304;28;20655;-71
2023/04/30 10:32:14;;;;;;;1.80;1.30;;;;;;;27.05;15.62;100500.59;5012316;28;20250;-72
2023/04/30 10:35:06;;;;;;;3.85;1.40;;;;;;;27.05;15.10;100516.47;4998799;28;20298;-70
2023/04/30 10:37:40;;;;;;;2.63;1.70;;;;;;;26.28;16.11;100521.88;5011906;28;20289;-69
2023/04/30 10:40:08;;;;;;;2.35;1.60;;;;;;;26.56;15.83;100515.53;5012375;28;20684;-71
2023/04/30 10:42:37;;;;;;;2.65;1.40;;;;;;;26.96;15.61;100518.81;5012001;28;20215;-70
2023/04/30 10:45:10;;;;;;;3.35;1.30;;;;;;;27.03;15.05;100507.78;5012222;28;20262;-70
2023/04/30 10:47:44;;;;;;;2.22;1.15;;;;;;;27.10;15.84;100512.53;5011902;28;20207;-70
2023/04/30 10:50:12;;;;;;;3.80;1.20;;;;;;;27.45;15.11;100504.66;5012186;28;20207;-71
2023/04/30 10:52:40;;;;;;;2.05;1.33;;;;;;;27.72;15.26;100506.16;5012009;28;20314;-71
2023/04/30 10:55:09;;;;;;;3.17;1.48;;;;;;;27.63;14.69;100501.59;5012066;28;20629;-71
2023/04/30 10:57:42;;;;;;;3.25;1.38;;;;;;;27.63;15.05;100498.94;5011763;28;20210;-71
2023/04/30 11:00:26;;;;;;;3.25;1.20;;;;;;;27.56;15.03;100516.22;5011713;28;20206;-71
2023/04/30 11:03:02;;;;;;;4.88;1.30;;;;;;;27.20;14.68;100507.41;5011599;28;20734;-70
2023/04/30 11:05:36;;;;;;;2.03;1.10;;;;;;;26.57;14.26;100519.03;5011868;28;20636;-70
2023/04/30 11:08:05;;;;;;;2.70;1.20;;;;;;;25.98;14.79;100504.56;5011806;28;20637;-72
2023/04/30 11:10:35;;;;;;;2.55;1.10;;;;;;;25.70;15.28;100528.47;5011645;28;20203;-71
2023/04/30 11:13:05;;;;;;;5.20;1.30;;;;;;;25.63;16.08;100524.53;5011406;28;20574;-71
2023/04/30 11:15:40;;;;;;;3.55;1.55;;;;;;;25.56;15.45;100536.47;5011784;28;20203;-71
2023/04/30 11:18:09;;;;;;;3.85;1.52;;;;;;;25.12;15.89;100527.88;5011419;28;20230;-71
2023/04/30 11:20:40;;;;;;;2.05;1.55;;;;;;;24.89;16.41;100539.88;5011401;28;20242;-70
2023/04/30 11:23:10;;;;;;;2.10;1.17;;;;;;;24.64;16.50;100531.81;5011751;28;20226;-71
2023/04/30 11:25:42;;;;;;;1.63;1.20;;;;;;;23.69;17.92;100524.34;5011096;28;20218;-71
2023/04/30 11:28:16;;;;;;;1.90;1.30;;;;;;;23.09;19.58;100541.72;5011170;28;20281;-72
2023/04/30 11:30:53;;;;;;;1.48;1.15;;;;;;;22.58;19.70;100540.97;5010994;28;20203;-72